Apple Valley, CA (92308)

2:29 AM PST on February 06, 2016 (GMT -0800)
Marianas Hill | | Change Station
CLOSE
Current Station
Personal Weather Station
Location: Apple Valley, CA
Elevation: 3442 ft
Nearby Weather Stations

Elev 3442 ft 34.42 °N, 117.16 °W | Updated 4 seconds ago

Clear
Clear
40.8 °F
Feels Like 41 °F
N
0.0
Wind Variable Wind from SSW
Gusts 3.0 mph

Today
High -- | Low -- °F
--% Chance of Precip.
Yesterday
High -- | Low -- °F
Precip. -- in
Pressure 30.49 in
Visibility 10.0 miles
Clouds Clear
Windchill 41 °F
Dew Point 22 °F
Humidity 46%
Rainfall 0.00 in
Snow Depth Not available.
6:42 AM 5:23 PM
Waning Crescent, 6% visible
METAR KGXA 060955Z AUTO 15005KT 10SM CLR 02/M07 A3042 RMK AO2 SLP323 WND DATA ESTMD T00171074 TSNO $
Pressure 30.49 in
Visibility 10.0 miles
Clouds Clear
Windchill 41 °F
Dew Point 22 °F
Humidity 46%
Rainfall 0.00 in
Snow Depth Not available.
6:42 AM 5:23 PM
Waning Crescent, 6% visible
METAR KGXA 060955Z AUTO 15005KT 10SM CLR 02/M07 A3042 RMK AO2 SLP323 WND DATA ESTMD T00171074 TSNO $

10-Day Weather Forecast

Almanac

Astronomy

Feb. 06, 2016 Rise Set
Actual Time
Civil Twilight
Nautical Twilight
Astronomical Twilight
Moon
Length of Visible Light
Length of Day
Tomorrow will be .
, % of the Moon is Illuminated

Today's Extremes

State Highs State Lows

Community

WunderPhotos

Upload Photos

1,890,933 photos uploaded!

WunderBlog® & News

Nearby

Air Quality

  Air Quality AQ Index Pollutant
Not available.

Snow Depth

Station Depth Elevation

Earthquake Activity

City Distance Mag. Time & Date
Minimum magnitude displayed is 2.5.

Coastal Water Temperatures

Place Temperature

Stations

Nearby Weather Stations

Station Location Temp. Windchill Dew Point Humidity Wind Precip. Elev Updated Type
                   

Watches & Warnings

There are currently no watches in effect.